sensor_id;sensor_type;location;lat;lon;timestamp;P1;durP1;ratioP1;P2;durP2;ratioP2
21878;SDS011;27908;42.708;23.278;2023-04-03T00:00:25;7.13;;;2.70;;
21878;SDS011;27908;42.708;23.278;2023-04-03T00:02:50;7.72;;;2.92;;
21878;SDS011;27908;42.708;23.278;2023-04-03T00:05:16;7.20;;;2.80;;
21878;SDS011;27908;42.708;23.278;2023-04-03T00:07:41;6.97;;;2.80;;
21878;SDS011;27908;42.708;23.278;2023-04-03T00:10:07;8.63;;;3.30;;
21878;SDS011;27908;42.708;23.278;2023-04-03T00:12:33;10.05;;;3.17;;
21878;SDS011;27908;42.708;23.278;2023-04-03T00:14:58;7.60;;;2.70;;
21878;SDS011;27908;42.708;23.278;2023-04-03T00:17:24;7.32;;;2.75;;
21878;SDS011;27908;42.708;23.278;2023-04-03T00:19:49;8.23;;;3.10;;
21878;SDS011;27908;42.708;23.278;2023-04-03T00:22:14;7.33;;;2.90;;
21878;SDS011;27908;42.708;23.278;2023-04-03T00:24:40;8.47;;;3.30;;
21878;SDS011;27908;42.708;23.278;2023-04-03T00:27:05;7.57;;;2.80;;
21878;SDS011;27908;42.708;23.278;2023-04-03T00:29:31;8.00;;;3.33;;
21878;SDS011;27908;42.708;23.278;2023-04-03T00:31:56;8.03;;;2.90;;
21878;SDS011;27908;42.708;23.278;2023-04-03T00:34:21;9.07;;;2.80;;
21878;SDS011;27908;42.708;23.278;2023-04-03T00:36:47;8.27;;;2.83;;
21878;SDS011;27908;42.708;23.278;2023-04-03T00:39:12;8.23;;;2.53;;
21878;SDS011;27908;42.708;23.278;2023-04-03T00:41:38;6.53;;;2.40;;
21878;SDS011;27908;42.708;23.278;2023-04-03T00:44:19;6.67;;;2.67;;
21878;SDS011;27908;42.708;23.278;2023-04-03T00:47:05;7.80;;;2.65;;
21878;SDS011;27908;42.708;23.278;2023-04-03T00:49:33;8.88;;;2.78;;
21878;SDS011;27908;42.708;23.278;2023-04-03T00:52:00;8.07;;;2.70;;
21878;SDS011;27908;42.708;23.278;2023-04-03T00:54:26;9.02;;;2.83;;
21878;SDS011;27908;42.708;23.278;2023-04-03T00:56:52;8.32;;;2.85;;
21878;SDS011;27908;42.708;23.278;2023-04-03T00:59:27;9.68;;;5.20;;
21878;SDS011;27908;42.708;23.278;2023-04-03T01:01:57;9.03;;;3.17;;
21878;SDS011;27908;42.708;23.278;2023-04-03T01:04:31;7.43;;;2.75;;
21878;SDS011;27908;42.708;23.278;2023-04-03T01:07:02;7.95;;;3.00;;
21878;SDS011;27908;42.708;23.278;2023-04-03T01:09:30;7.80;;;2.85;;
21878;SDS011;27908;42.708;23.278;2023-04-03T01:14:46;7.67;;;3.10;;
21878;SDS011;27908;42.708;23.278;2023-04-03T01:17:26;6.72;;;3.05;;
21878;SDS011;27908;42.708;23.278;2023-04-03T01:22:56;7.40;;;2.75;;
21878;SDS011;27908;42.708;23.278;2023-04-03T01:25:26;7.60;;;3.00;;
21878;SDS011;27908;42.708;23.278;2023-04-03T01:27:52;12.87;;;3.10;;
21878;SDS011;27908;42.708;23.278;2023-04-03T01:30:18;8.27;;;2.60;;
21878;SDS011;27908;42.708;23.278;2023-04-03T01:32:45;8.07;;;3.57;;
21878;SDS011;27908;42.708;23.278;2023-04-03T01:35:11;7.10;;;3.17;;
21878;SDS011;27908;42.708;23.278;2023-04-03T01:37:37;7.63;;;2.90;;
21878;SDS011;27908;42.708;23.278;2023-04-03T01:40:02;8.47;;;3.00;;
21878;SDS011;27908;42.708;23.278;2023-04-03T01:42:28;8.35;;;3.30;;
21878;SDS011;27908;42.708;23.278;2023-04-03T01:44:54;7.50;;;2.67;;
21878;SDS011;27908;42.708;23.278;2023-04-03T01:47:19;7.45;;;3.08;;
21878;SDS011;27908;42.708;23.278;2023-04-03T01:49:45;8.03;;;3.00;;
21878;SDS011;27908;42.708;23.278;2023-04-03T01:52:10;6.73;;;3.10;;
21878;SDS011;27908;42.708;23.278;2023-04-03T01:54:36;7.87;;;3.00;;
21878;SDS011;27908;42.708;23.278;2023-04-03T01:57:01;7.03;;;2.80;;
21878;SDS011;27908;42.708;23.278;2023-04-03T01:59:27;6.28;;;2.50;;
21878;SDS011;27908;42.708;23.278;2023-04-03T02:01:53;6.85;;;2.53;;
21878;SDS011;27908;42.708;23.278;2023-04-03T02:04:18;5.60;;;2.35;;
21878;SDS011;27908;42.708;23.278;2023-04-03T02:06:43;6.80;;;2.80;;
21878;SDS011;27908;42.708;23.278;2023-04-03T02:09:09;6.50;;;2.77;;
21878;SDS011;27908;42.708;23.278;2023-04-03T02:11:34;9.25;;;2.90;;
21878;SDS011;27908;42.708;23.278;2023-04-03T02:14:00;6.60;;;2.60;;
21878;SDS011;27908;42.708;23.278;2023-04-03T02:16:25;7.50;;;2.67;;
21878;SDS011;27908;42.708;23.278;2023-04-03T02:18:51;7.60;;;2.80;;
21878;SDS011;27908;42.708;23.278;2023-04-03T02:21:16;6.72;;;2.70;;
21878;SDS011;27908;42.708;23.278;2023-04-03T02:23:42;5.80;;;2.37;;
21878;SDS011;27908;42.708;23.278;2023-04-03T02:26:11;6.73;;;2.33;;
21878;SDS011;27908;42.708;23.278;2023-04-03T02:28:38;7.97;;;2.55;;
21878;SDS011;27908;42.708;23.278;2023-04-03T02:31:04;7.87;;;2.77;;
21878;SDS011;27908;42.708;23.278;2023-04-03T02:33:31;7.45;;;2.63;;
21878;SDS011;27908;42.708;23.278;2023-04-03T02:35:57;8.57;;;3.72;;
21878;SDS011;27908;42.708;23.278;2023-04-03T02:38:23;8.85;;;3.65;;
21878;SDS011;27908;42.708;23.278;2023-04-03T02:40:49;7.77;;;3.03;;
21878;SDS011;27908;42.708;23.278;2023-04-03T02:43:15;7.00;;;3.00;;
21878;SDS011;27908;42.708;23.278;2023-04-03T02:45:41;7.35;;;2.88;;
21878;SDS011;27908;42.708;23.278;2023-04-03T02:48:07;8.50;;;3.30;;
21878;SDS011;27908;42.708;23.278;2023-04-03T02:50:32;7.30;;;3.10;;
21878;SDS011;27908;42.708;23.278;2023-04-03T02:52:57;7.13;;;3.07;;
21878;SDS011;27908;42.708;23.278;2023-04-03T02:55:23;7.10;;;3.10;;
21878;SDS011;27908;42.708;23.278;2023-04-03T02:57:48;8.80;;;3.35;;
21878;SDS011;27908;42.708;23.278;2023-04-03T03:00:14;7.00;;;3.00;;
21878;SDS011;27908;42.708;23.278;2023-04-03T03:02:40;7.40;;;3.05;;
21878;SDS011;27908;42.708;23.278;2023-04-03T03:05:05;9.00;;;4.07;;
21878;SDS011;27908;42.708;23.278;2023-04-03T03:07:32;7.97;;;3.53;;
21878;SDS011;27908;42.708;23.278;2023-04-03T03:09:58;10.05;;;3.75;;
21878;SDS011;27908;42.708;23.278;2023-04-03T03:12:23;8.33;;;3.90;;
21878;SDS011;27908;42.708;23.278;2023-04-03T03:14:49;9.50;;;4.28;;
21878;SDS011;27908;42.708;23.278;2023-04-03T03:17:15;9.57;;;3.97;;
21878;SDS011;27908;42.708;23.278;2023-04-03T03:19:41;8.98;;;4.05;;
21878;SDS011;27908;42.708;23.278;2023-04-03T03:22:06;10.00;;;5.03;;
21878;SDS011;27908;42.708;23.278;2023-04-03T03:24:32;10.20;;;4.43;;
21878;SDS011;27908;42.708;23.278;2023-04-03T03:26:57;9.93;;;4.73;;
21878;SDS011;27908;42.708;23.278;2023-04-03T03:29:23;14.70;;;6.10;;
21878;SDS011;27908;42.708;23.278;2023-04-03T03:31:48;11.13;;;5.27;;
21878;SDS011;27908;42.708;23.278;2023-04-03T03:34:14;12.43;;;5.75;;
21878;SDS011;27908;42.708;23.278;2023-04-03T03:36:39;11.10;;;5.43;;
21878;SDS011;27908;42.708;23.278;2023-04-03T03:39:05;13.60;;;5.82;;
21878;SDS011;27908;42.708;23.278;2023-04-03T03:41:31;11.43;;;5.93;;
21878;SDS011;27908;42.708;23.278;2023-04-03T03:43:56;13.03;;;5.60;;
21878;SDS011;27908;42.708;23.278;2023-04-03T03:46:22;14.75;;;5.38;;
21878;SDS011;27908;42.708;23.278;2023-04-03T03:48:47;12.70;;;5.63;;
21878;SDS011;27908;42.708;23.278;2023-04-03T03:51:13;10.23;;;5.70;;
21878;SDS011;27908;42.708;23.278;2023-04-03T03:53:38;12.33;;;5.70;;
21878;SDS011;27908;42.708;23.278;2023-04-03T03:56:04;12.40;;;5.70;;
21878;SDS011;27908;42.708;23.278;2023-04-03T03:58:30;11.32;;;5.55;;
21878;SDS011;27908;42.708;23.278;2023-04-03T04:00:59;11.38;;;5.53;;
21878;SDS011;27908;42.708;23.278;2023-04-03T04:03:26;9.82;;;5.07;;
21878;SDS011;27908;42.708;23.278;2023-04-03T04:05:51;11.10;;;5.23;;
21878;SDS011;27908;42.708;23.278;2023-04-03T04:08:17;12.02;;;5.40;;
21878;SDS011;27908;42.708;23.278;2023-04-03T04:10:42;12.67;;;5.40;;
21878;SDS011;27908;42.708;23.278;2023-04-03T04:13:07;15.50;;;5.47;;
21878;SDS011;27908;42.708;23.278;2023-04-03T04:15:33;12.77;;;5.83;;
21878;SDS011;27908;42.708;23.278;2023-04-03T04:17:58;17.95;;;10.15;;
21878;SDS011;27908;42.708;23.278;2023-04-03T04:20:24;19.10;;;10.53;;
21878;SDS011;27908;42.708;23.278;2023-04-03T04:22:49;19.47;;;9.77;;
21878;SDS011;27908;42.708;23.278;2023-04-03T04:25:15;15.90;;;10.20;;
21878;SDS011;27908;42.708;23.278;2023-04-03T04:27:40;16.90;;;8.40;;
21878;SDS011;27908;42.708;23.278;2023-04-03T04:30:06;14.57;;;8.50;;
21878;SDS011;27908;42.708;23.278;2023-04-03T04:32:32;17.48;;;8.32;;
21878;SDS011;27908;42.708;23.278;2023-04-03T04:34:58;14.25;;;8.38;;
21878;SDS011;27908;42.708;23.278;2023-04-03T04:37:23;12.67;;;6.90;;
21878;SDS011;27908;42.708;23.278;2023-04-03T04:39:48;17.13;;;7.23;;
21878;SDS011;27908;42.708;23.278;2023-04-03T04:42:14;17.13;;;8.47;;
21878;SDS011;27908;42.708;23.278;2023-04-03T04:44:39;16.35;;;7.88;;
21878;SDS011;27908;42.708;23.278;2023-04-03T04:47:05;15.37;;;7.47;;
21878;SDS011;27908;42.708;23.278;2023-04-03T04:49:30;14.90;;;7.83;;
21878;SDS011;27908;42.708;23.278;2023-04-03T04:51:56;14.90;;;7.33;;
21878;SDS011;27908;42.708;23.278;2023-04-03T04:54:21;13.17;;;6.30;;
21878;SDS011;27908;42.708;23.278;2023-04-03T04:56:46;13.25;;;6.90;;
21878;SDS011;27908;42.708;23.278;2023-04-03T04:59:12;12.37;;;6.77;;
21878;SDS011;27908;42.708;23.278;2023-04-03T05:01:37;12.90;;;6.87;;
21878;SDS011;27908;42.708;23.278;2023-04-03T05:04:03;14.55;;;6.60;;
21878;SDS011;27908;42.708;23.278;2023-04-03T05:06:29;14.70;;;7.90;;
21878;SDS011;27908;42.708;23.278;2023-04-03T05:08:59;16.38;;;7.90;;
21878;SDS011;27908;42.708;23.278;2023-04-03T05:11:24;16.58;;;6.93;;
21878;SDS011;27908;42.708;23.278;2023-04-03T05:13:50;20.17;;;7.38;;
21878;SDS011;27908;42.708;23.278;2023-04-03T05:16:16;21.20;;;10.40;;
21878;SDS011;27908;42.708;23.278;2023-04-03T05:18:41;21.97;;;8.63;;
21878;SDS011;27908;42.708;23.278;2023-04-03T05:21:07;20.30;;;9.07;;
21878;SDS011;27908;42.708;23.278;2023-04-03T05:23:32;20.77;;;9.60;;
21878;SDS011;27908;42.708;23.278;2023-04-03T05:25:57;20.50;;;10.23;;
21878;SDS011;27908;42.708;23.278;2023-04-03T05:28:23;23.30;;;10.37;;
21878;SDS011;27908;42.708;23.278;2023-04-03T05:30:55;26.52;;;11.15;;
21878;SDS011;27908;42.708;23.278;2023-04-03T05:33:22;21.55;;;10.63;;
21878;SDS011;27908;42.708;23.278;2023-04-03T05:35:48;26.05;;;12.27;;
21878;SDS011;27908;42.708;23.278;2023-04-03T05:38:13;25.70;;;11.53;;
21878;SDS011;27908;42.708;23.278;2023-04-03T05:40:38;21.07;;;9.50;;
21878;SDS011;27908;42.708;23.278;2023-04-03T05:43:04;18.57;;;8.80;;
21878;SDS011;27908;42.708;23.278;2023-04-03T05:45:30;16.25;;;7.97;;
21878;SDS011;27908;42.708;23.278;2023-04-03T05:47:55;21.53;;;8.63;;
21878;SDS011;27908;42.708;23.278;2023-04-03T05:50:21;15.50;;;7.63;;
21878;SDS011;27908;42.708;23.278;2023-04-03T05:52:46;18.65;;;7.30;;
21878;SDS011;27908;42.708;23.278;2023-04-03T05:55:14;22.10;;;8.50;;
21878;SDS011;27908;42.708;23.278;2023-04-03T05:57:40;17.75;;;7.57;;
21878;SDS011;27908;42.708;23.278;2023-04-03T06:00:06;20.57;;;7.90;;
21878;SDS011;27908;42.708;23.278;2023-04-03T06:02:34;16.73;;;8.10;;
21878;SDS011;27908;42.708;23.278;2023-04-03T06:05:00;18.35;;;8.20;;
21878;SDS011;27908;42.708;23.278;2023-04-03T06:07:26;20.25;;;8.43;;
21878;SDS011;27908;42.708;23.278;2023-04-03T06:09:53;19.27;;;9.00;;
21878;SDS011;27908;42.708;23.278;2023-04-03T06:12:20;20.55;;;8.77;;
21878;SDS011;27908;42.708;23.278;2023-04-03T06:14:46;23.48;;;9.93;;
21878;SDS011;27908;42.708;23.278;2023-04-03T06:17:12;24.42;;;10.00;;
21878;SDS011;27908;42.708;23.278;2023-04-03T06:19:38;24.52;;;10.13;;
21878;SDS011;27908;42.708;23.278;2023-04-03T06:22:05;27.93;;;9.60;;
21878;SDS011;27908;42.708;23.278;2023-04-03T06:24:31;21.65;;;8.52;;
21878;SDS011;27908;42.708;23.278;2023-04-03T06:26:57;20.10;;;8.73;;
21878;SDS011;27908;42.708;23.278;2023-04-03T06:29:23;24.63;;;9.00;;
21878;SDS011;27908;42.708;23.278;2023-04-03T06:31:49;19.33;;;8.93;;
21878;SDS011;27908;42.708;23.278;2023-04-03T06:34:15;18.45;;;8.15;;
21878;SDS011;27908;42.708;23.278;2023-04-03T06:36:41;18.88;;;8.30;;
21878;SDS011;27908;42.708;23.278;2023-04-03T06:39:08;17.02;;;7.80;;
21878;SDS011;27908;42.708;23.278;2023-04-03T06:41:38;16.67;;;8.37;;
21878;SDS011;27908;42.708;23.278;2023-04-03T06:44:03;19.10;;;8.03;;
21878;SDS011;27908;42.708;23.278;2023-04-03T06:46:29;19.07;;;8.40;;
21878;SDS011;27908;42.708;23.278;2023-04-03T06:48:55;22.63;;;7.93;;
21878;SDS011;27908;42.708;23.278;2023-04-03T06:53:48;18.83;;;8.40;;
21878;SDS011;27908;42.708;23.278;2023-04-03T06:56:14;16.30;;;8.20;;
21878;SDS011;27908;42.708;23.278;2023-04-03T06:58:40;18.17;;;8.15;;
21878;SDS011;27908;42.708;23.278;2023-04-03T07:01:07;17.77;;;8.27;;
21878;SDS011;27908;42.708;23.278;2023-04-03T07:03:35;15.98;;;8.18;;
21878;SDS011;27908;42.708;23.278;2023-04-03T07:06:00;20.03;;;8.50;;
21878;SDS011;27908;42.708;23.278;2023-04-03T07:08:26;16.10;;;7.55;;
21878;SDS011;27908;42.708;23.278;2023-04-03T07:10:51;16.67;;;8.13;;
21878;SDS011;27908;42.708;23.278;2023-04-03T07:13:17;19.27;;;8.50;;
21878;SDS011;27908;42.708;23.278;2023-04-03T07:15:42;15.93;;;8.50;;
21878;SDS011;27908;42.708;23.278;2023-04-03T07:18:07;15.75;;;8.07;;
21878;SDS011;27908;42.708;23.278;2023-04-03T07:20:33;17.13;;;7.73;;
21878;SDS011;27908;42.708;23.278;2023-04-03T07:22:58;17.27;;;7.23;;
21878;SDS011;27908;42.708;23.278;2023-04-03T07:25:24;15.80;;;6.00;;
21878;SDS011;27908;42.708;23.278;2023-04-03T07:27:50;19.23;;;7.23;;
21878;SDS011;27908;42.708;23.278;2023-04-03T07:30:15;14.13;;;6.67;;
21878;SDS011;27908;42.708;23.278;2023-04-03T07:32:41;10.70;;;4.88;;
21878;SDS011;27908;42.708;23.278;2023-04-03T07:35:07;12.00;;;4.70;;
21878;SDS011;27908;42.708;23.278;2023-04-03T07:37:32;13.48;;;4.38;;
21878;SDS011;27908;42.708;23.278;2023-04-03T07:39:58;8.83;;;3.00;;
21878;SDS011;27908;42.708;23.278;2023-04-03T07:42:24;8.63;;;4.03;;
21878;SDS011;27908;42.708;23.278;2023-04-03T07:44:52;10.37;;;4.17;;
21878;SDS011;27908;42.708;23.278;2023-04-03T07:47:18;15.32;;;5.28;;
21878;SDS011;27908;42.708;23.278;2023-04-03T07:49:45;9.90;;;4.38;;
21878;SDS011;27908;42.708;23.278;2023-04-03T07:52:11;10.07;;;4.70;;
21878;SDS011;27908;42.708;23.278;2023-04-03T07:54:36;13.30;;;5.87;;
21878;SDS011;27908;42.708;23.278;2023-04-03T07:57:02;17.65;;;6.43;;
21878;SDS011;27908;42.708;23.278;2023-04-03T07:59:28;13.93;;;7.60;;
21878;SDS011;27908;42.708;23.278;2023-04-03T08:01:53;17.43;;;8.60;;
21878;SDS011;27908;42.708;23.278;2023-04-03T08:04:19;17.05;;;9.00;;
21878;SDS011;27908;42.708;23.278;2023-04-03T08:06:44;20.40;;;10.77;;
21878;SDS011;27908;42.708;23.278;2023-04-03T08:09:10;18.87;;;10.20;;
21878;SDS011;27908;42.708;23.278;2023-04-03T08:11:35;19.47;;;9.60;;
21878;SDS011;27908;42.708;23.278;2023-04-03T08:14:01;20.33;;;9.48;;
21878;SDS011;27908;42.708;23.278;2023-04-03T08:16:27;16.70;;;8.23;;
21878;SDS011;27908;42.708;23.278;2023-04-03T08:18:53;14.67;;;8.40;;
21878;SDS011;27908;42.708;23.278;2023-04-03T08:21:19;17.23;;;8.73;;
21878;SDS011;27908;42.708;23.278;2023-04-03T08:23:47;23.15;;;8.55;;
21878;SDS011;27908;42.708;23.278;2023-04-03T08:26:15;16.90;;;8.50;;
21878;SDS011;27908;42.708;23.278;2023-04-03T08:28:43;20.15;;;9.73;;
21878;SDS011;27908;42.708;23.278;2023-04-03T08:31:10;21.00;;;9.60;;
21878;SDS011;27908;42.708;23.278;2023-04-03T08:33:38;20.92;;;8.75;;
21878;SDS011;27908;42.708;23.278;2023-04-03T08:36:05;17.33;;;9.02;;
21878;SDS011;27908;42.708;23.278;2023-04-03T08:38:41;16.77;;;7.50;;
21878;SDS011;27908;42.708;23.278;2023-04-03T08:41:27;16.38;;;7.47;;
21878;SDS011;27908;42.708;23.278;2023-04-03T08:43:58;14.20;;;7.80;;
21878;SDS011;27908;42.708;23.278;2023-04-03T08:49:12;14.15;;;7.30;;
21878;SDS011;27908;42.708;23.278;2023-04-03T08:51:51;16.55;;;7.15;;
21878;SDS011;27908;42.708;23.278;2023-04-03T08:54:23;18.60;;;7.60;;
21878;SDS011;27908;42.708;23.278;2023-04-03T08:56:55;15.70;;;7.53;;
21878;SDS011;27908;42.708;23.278;2023-04-03T08:59:24;19.08;;;8.18;;
21878;SDS011;27908;42.708;23.278;2023-04-03T09:01:54;16.73;;;8.52;;
21878;SDS011;27908;42.708;23.278;2023-04-03T09:04:20;16.63;;;8.65;;
21878;SDS011;27908;42.708;23.278;2023-04-03T09:06:49;16.87;;;8.53;;
21878;SDS011;27908;42.708;23.278;2023-04-03T09:23:18;20.38;;;9.10;;
21878;SDS011;27908;42.708;23.278;2023-04-03T09:25:48;15.73;;;8.38;;
21878;SDS011;27908;42.708;23.278;2023-04-03T09:28:16;18.50;;;9.17;;
21878;SDS011;27908;42.708;23.278;2023-04-03T09:30:41;16.55;;;8.20;;
21878;SDS011;27908;42.708;23.278;2023-04-03T09:33:07;18.52;;;8.88;;
21878;SDS011;27908;42.708;23.278;2023-04-03T09:35:35;18.50;;;8.40;;
21878;SDS011;27908;42.708;23.278;2023-04-03T09:38:14;18.23;;;9.48;;
21878;SDS011;27908;42.708;23.278;2023-04-03T09:40:42;19.55;;;9.68;;
21878;SDS011;27908;42.708;23.278;2023-04-03T09:45:42;20.23;;;8.88;;
21878;SDS011;27908;42.708;23.278;2023-04-03T09:58:38;20.90;;;8.48;;
21878;SDS011;27908;42.708;23.278;2023-04-03T10:01:06;17.10;;;8.93;;
21878;SDS011;27908;42.708;23.278;2023-04-03T10:03:45;18.85;;;8.65;;
21878;SDS011;27908;42.708;23.278;2023-04-03T10:06:21;17.67;;;10.27;;
21878;SDS011;27908;42.708;23.278;2023-04-03T10:17:42;17.13;;;7.15;;
21878;SDS011;27908;42.708;23.278;2023-04-03T10:41:50;17.40;;;7.53;;
21878;SDS011;27908;42.708;23.278;2023-04-03T10:44:37;10.70;;;5.90;;
21878;SDS011;27908;42.708;23.278;2023-04-03T10:47:14;12.50;;;5.50;;
21878;SDS011;27908;42.708;23.278;2023-04-03T10:49:56;13.82;;;5.88;;
21878;SDS011;27908;42.708;23.278;2023-04-03T10:55:13;13.10;;;5.57;;
21878;SDS011;27908;42.708;23.278;2023-04-03T10:58:18;10.20;;;4.10;;
21878;SDS011;27908;42.708;23.278;2023-04-03T11:00:51;12.63;;;5.23;;
21878;SDS011;27908;42.708;23.278;2023-04-03T11:06:11;12.52;;;4.43;;
21878;SDS011;27908;42.708;23.278;2023-04-03T11:11:30;9.82;;;4.07;;
21878;SDS011;27908;42.708;23.278;2023-04-03T11:16:29;12.98;;;4.60;;
21878;SDS011;27908;42.708;23.278;2023-04-03T11:21:56;11.63;;;4.10;;
21878;SDS011;27908;42.708;23.278;2023-04-03T11:24:27;12.18;;;4.43;;
21878;SDS011;27908;42.708;23.278;2023-04-03T11:26:56;9.10;;;3.93;;
21878;SDS011;27908;42.708;23.278;2023-04-03T11:29:25;10.70;;;4.28;;
21878;SDS011;27908;42.708;23.278;2023-04-03T11:37:01;11.15;;;4.35;;
21878;SDS011;27908;42.708;23.278;2023-04-03T11:39:36;7.87;;;3.73;;
21878;SDS011;27908;42.708;23.278;2023-04-03T11:47:48;7.63;;;3.10;;
21878;SDS011;27908;42.708;23.278;2023-04-03T11:53:00;10.03;;;3.43;;
21878;SDS011;27908;42.708;23.278;2023-04-03T12:01:07;9.45;;;3.50;;
21878;SDS011;27908;42.708;23.278;2023-04-03T12:03:55;9.63;;;3.53;;
21878;SDS011;27908;42.708;23.278;2023-04-03T12:08:57;9.68;;;3.80;;
21878;SDS011;27908;42.708;23.278;2023-04-03T12:11:28;7.50;;;3.50;;
21878;SDS011;27908;42.708;23.278;2023-04-03T12:16:22;10.33;;;3.60;;
21878;SDS011;27908;42.708;23.278;2023-04-03T12:21:13;8.47;;;2.67;;
21878;SDS011;27908;42.708;23.278;2023-04-03T12:26:32;7.47;;;2.72;;
21878;SDS011;27908;42.708;23.278;2023-04-03T12:29:37;7.20;;;2.60;;
21878;SDS011;27908;42.708;23.278;2023-04-03T12:45:59;8.02;;;3.50;;
21878;SDS011;27908;42.708;23.278;2023-04-03T12:48:30;7.87;;;3.20;;
21878;SDS011;27908;42.708;23.278;2023-04-03T12:51:01;6.82;;;2.55;;
21878;SDS011;27908;42.708;23.278;2023-04-03T12:53:28;7.35;;;3.67;;
21878;SDS011;27908;42.708;23.278;2023-04-03T12:58:51;7.32;;;3.63;;
21878;SDS011;27908;42.708;23.278;2023-04-03T13:01:19;8.63;;;3.87;;
21878;SDS011;27908;42.708;23.278;2023-04-03T13:03:52;10.20;;;4.95;;
21878;SDS011;27908;42.708;23.278;2023-04-03T13:06:26;8.68;;;4.47;;
21878;SDS011;27908;42.708;23.278;2023-04-03T13:08:56;9.80;;;5.03;;
21878;SDS011;27908;42.708;23.278;2023-04-03T13:11:25;10.70;;;5.25;;
21878;SDS011;27908;42.708;23.278;2023-04-03T13:13:59;11.17;;;4.70;;
21878;SDS011;27908;42.708;23.278;2023-04-03T13:16:28;11.50;;;4.55;;
21878;SDS011;27908;42.708;23.278;2023-04-03T13:18:54;10.25;;;5.30;;
21878;SDS011;27908;42.708;23.278;2023-04-03T13:21:21;10.57;;;5.20;;
21878;SDS011;27908;42.708;23.278;2023-04-03T13:23:51;9.70;;;4.67;;
21878;SDS011;27908;42.708;23.278;2023-04-03T13:26:20;8.55;;;4.40;;
21878;SDS011;27908;42.708;23.278;2023-04-03T13:28:48;13.18;;;7.00;;
21878;SDS011;27908;42.708;23.278;2023-04-03T13:31:22;13.75;;;7.20;;
21878;SDS011;27908;42.708;23.278;2023-04-03T13:36:21;12.47;;;6.57;;
21878;SDS011;27908;42.708;23.278;2023-04-03T13:41:39;10.98;;;4.95;;
21878;SDS011;27908;42.708;23.278;2023-04-03T13:44:17;14.52;;;7.20;;
21878;SDS011;27908;42.708;23.278;2023-04-03T13:46:43;11.50;;;6.63;;
21878;SDS011;27908;42.708;23.278;2023-04-03T13:49:22;15.47;;;9.13;;
21878;SDS011;27908;42.708;23.278;2023-04-03T13:51:56;12.77;;;7.03;;
21878;SDS011;27908;42.708;23.278;2023-04-03T13:54:23;11.40;;;6.37;;
21878;SDS011;27908;42.708;23.278;2023-04-03T13:57:15;9.98;;;4.65;;
21878;SDS011;27908;42.708;23.278;2023-04-03T13:59:41;11.63;;;5.88;;
21878;SDS011;27908;42.708;23.278;2023-04-03T14:04:44;12.83;;;6.07;;
21878;SDS011;27908;42.708;23.278;2023-04-03T14:07:11;11.20;;;6.75;;
21878;SDS011;27908;42.708;23.278;2023-04-03T14:09:36;13.17;;;6.20;;
21878;SDS011;27908;42.708;23.278;2023-04-03T14:12:14;9.85;;;5.55;;
21878;SDS011;27908;42.708;23.278;2023-04-03T14:14:42;11.98;;;6.22;;
21878;SDS011;27908;42.708;23.278;2023-04-03T14:17:16;14.00;;;6.93;;
21878;SDS011;27908;42.708;23.278;2023-04-03T14:19:45;12.50;;;7.32;;
21878;SDS011;27908;42.708;23.278;2023-04-03T14:25:05;12.50;;;7.15;;
21878;SDS011;27908;42.708;23.278;2023-04-03T14:27:35;14.82;;;7.72;;
21878;SDS011;27908;42.708;23.278;2023-04-03T14:30:03;13.05;;;6.82;;
21878;SDS011;27908;42.708;23.278;2023-04-03T14:32:32;15.03;;;6.83;;
21878;SDS011;27908;42.708;23.278;2023-04-03T14:34:57;11.50;;;6.18;;
21878;SDS011;27908;42.708;23.278;2023-04-03T14:37:24;11.27;;;5.33;;
21878;SDS011;27908;42.708;23.278;2023-04-03T14:39:54;11.38;;;5.57;;
21878;SDS011;27908;42.708;23.278;2023-04-03T14:42:27;10.88;;;6.43;;
21878;SDS011;27908;42.708;23.278;2023-04-03T14:44:58;12.82;;;6.55;;
21878;SDS011;27908;42.708;23.278;2023-04-03T14:47:25;10.90;;;5.93;;
21878;SDS011;27908;42.708;23.278;2023-04-03T14:49:53;9.73;;;5.53;;
21878;SDS011;27908;42.708;23.278;2023-04-03T14:52:21;10.43;;;5.63;;
21878;SDS011;27908;42.708;23.278;2023-04-03T14:54:51;11.18;;;5.03;;
21878;SDS011;27908;42.708;23.278;2023-04-03T14:57:17;9.05;;;4.80;;
21878;SDS011;27908;42.708;23.278;2023-04-03T14:59:43;10.83;;;5.40;;
21878;SDS011;27908;42.708;23.278;2023-04-03T15:02:27;11.48;;;4.95;;
21878;SDS011;27908;42.708;23.278;2023-04-03T15:04:54;10.73;;;5.55;;
21878;SDS011;27908;42.708;23.278;2023-04-03T15:07:21;9.40;;;5.30;;
21878;SDS011;27908;42.708;23.278;2023-04-03T15:09:49;11.02;;;5.57;;
21878;SDS011;27908;42.708;23.278;2023-04-03T15:12:15;10.02;;;5.47;;
21878;SDS011;27908;42.708;23.278;2023-04-03T15:14:41;9.50;;;4.72;;
21878;SDS011;27908;42.708;23.278;2023-04-03T15:17:08;9.70;;;5.03;;
21878;SDS011;27908;42.708;23.278;2023-04-03T15:19:39;11.45;;;6.15;;
21878;SDS011;27908;42.708;23.278;2023-04-03T15:22:05;9.70;;;5.50;;
21878;SDS011;27908;42.708;23.278;2023-04-03T15:24:31;7.57;;;3.47;;
21878;SDS011;27908;42.708;23.278;2023-04-03T15:26:56;9.43;;;4.60;;
21878;SDS011;27908;42.708;23.278;2023-04-03T15:29:22;10.00;;;4.53;;
21878;SDS011;27908;42.708;23.278;2023-04-03T15:31:47;8.20;;;4.03;;
21878;SDS011;27908;42.708;23.278;2023-04-03T15:34:14;9.27;;;4.45;;
21878;SDS011;27908;42.708;23.278;2023-04-03T15:36:41;7.87;;;3.50;;
21878;SDS011;27908;42.708;23.278;2023-04-03T15:39:06;8.50;;;3.97;;
21878;SDS011;27908;42.708;23.278;2023-04-03T15:41:32;6.73;;;3.17;;
21878;SDS011;27908;42.708;23.278;2023-04-03T15:43:57;8.00;;;3.77;;
21878;SDS011;27908;42.708;23.278;2023-04-03T15:46:22;8.60;;;4.32;;
21878;SDS011;27908;42.708;23.278;2023-04-03T15:48:48;7.63;;;3.90;;
21878;SDS011;27908;42.708;23.278;2023-04-03T15:51:14;14.75;;;6.40;;
21878;SDS011;27908;42.708;23.278;2023-04-03T15:53:40;8.53;;;3.70;;
21878;SDS011;27908;42.708;23.278;2023-04-03T15:56:05;10.27;;;5.13;;
21878;SDS011;27908;42.708;23.278;2023-04-03T15:58:33;8.38;;;4.35;;
21878;SDS011;27908;42.708;23.278;2023-04-03T16:00:58;9.37;;;4.77;;
21878;SDS011;27908;42.708;23.278;2023-04-03T16:03:23;9.85;;;5.60;;
21878;SDS011;27908;42.708;23.278;2023-04-03T16:05:49;11.00;;;5.57;;
21878;SDS011;27908;42.708;23.278;2023-04-03T16:08:15;10.48;;;5.40;;
21878;SDS011;27908;42.708;23.278;2023-04-03T16:10:42;8.55;;;4.25;;
21878;SDS011;27908;42.708;23.278;2023-04-03T16:13:10;10.10;;;5.70;;
21878;SDS011;27908;42.708;23.278;2023-04-03T16:15:35;8.98;;;4.60;;
21878;SDS011;27908;42.708;23.278;2023-04-03T16:18:01;12.13;;;6.43;;
21878;SDS011;27908;42.708;23.278;2023-04-03T16:20:27;12.98;;;5.97;;
21878;SDS011;27908;42.708;23.278;2023-04-03T16:22:53;14.90;;;7.40;;
21878;SDS011;27908;42.708;23.278;2023-04-03T16:25:18;15.10;;;7.05;;
21878;SDS011;27908;42.708;23.278;2023-04-03T16:27:45;12.65;;;6.70;;
21878;SDS011;27908;42.708;23.278;2023-04-03T16:30:10;12.63;;;6.60;;
21878;SDS011;27908;42.708;23.278;2023-04-03T16:32:36;12.43;;;7.07;;
21878;SDS011;27908;42.708;23.278;2023-04-03T16:35:04;10.85;;;5.43;;
21878;SDS011;27908;42.708;23.278;2023-04-03T16:37:30;15.52;;;7.53;;
21878;SDS011;27908;42.708;23.278;2023-04-03T16:39:55;13.03;;;7.10;;
21878;SDS011;27908;42.708;23.278;2023-04-03T16:42:23;15.32;;;7.50;;
21878;SDS011;27908;42.708;23.278;2023-04-03T16:44:48;14.98;;;7.32;;
21878;SDS011;27908;42.708;23.278;2023-04-03T16:47:14;11.83;;;6.17;;